Time;durP1;ratioP1;P1;durP2;ratioP2;P2;SDS_P1;SDS_P2;PMS_P1;PMS_P2;Temp;Humidity;BMP_temperature;BMP_pressure;BME280_temperature;BME280_humidity;BME280_pressure;Samples;Min_cycle;Max_cycle;Signal;HPM_P1;HPM_P2
2023/05/02 00:00:33;;;;;;;1999.90;999.90;;;8.30;99.90;;;;;;5074601;28;20029;-76
2023/05/02 00:02:59;;;;;;;1999.90;999.90;;;8.30;99.90;;;;;;5074734;28;20116;-75
2023/05/02 00:05:25;;;;;;;1999.90;999.90;;;8.30;99.90;;;;;;5074657;28;20563;-76
2023/05/02 00:07:51;;;;;;;1999.90;999.90;;;8.30;99.90;;;;;;5072836;28;20490;-76
2023/05/02 00:10:17;;;;;;;1999.90;999.90;;;8.20;99.90;;;;;;5074946;28;20036;-75
2023/05/02 00:12:43;;;;;;;1999.90;999.90;;;8.20;99.90;;;;;;5074806;28;20560;-76
2023/05/02 00:15:09;;;;;;;1999.90;999.90;;;8.20;99.90;;;;;;5074087;28;20037;-76
2023/05/02 00:17:35;;;;;;;1999.90;999.90;;;8.20;99.90;;;;;;5073025;28;20037;-76
2023/05/02 00:20:03;;;;;;;1999.90;999.90;;;8.20;99.90;;;;;;5073022;28;20106;-75
2023/05/02 00:22:28;;;;;;;1999.90;999.90;;;8.10;99.90;;;;;;5074753;28;20128;-76
2023/05/02 00:24:57;;;;;;;1999.90;999.90;;;8.00;99.90;;;;;;5074425;28;20112;-76
2023/05/02 00:27:23;;;;;;;1999.90;999.90;;;8.00;99.90;;;;;;5074227;28;20556;-76
2023/05/02 00:29:51;;;;;;;1999.90;999.90;;;8.00;99.90;;;;;;5073073;28;20103;-76
2023/05/02 00:32:16;;;;;;;1999.90;999.90;;;8.00;99.90;;;;;;5074483;28;20033;-75
2023/05/02 00:34:42;;;;;;;1999.90;999.90;;;7.90;99.90;;;;;;5074404;28;20033;-75
2023/05/02 00:37:07;;;;;;;1999.90;999.90;;;7.90;99.90;;;;;;5073902;28;20040;-76
2023/05/02 00:39:34;;;;;;;1999.90;999.90;;;7.90;99.90;;;;;;5072999;28;20044;-76
2023/05/02 00:42:00;;;;;;;1999.90;999.90;;;7.90;99.90;;;;;;5074344;28;20025;-76
2023/05/02 00:44:26;;;;;;;1999.90;999.90;;;7.90;99.90;;;;;;5074116;28;20061;-76
2023/05/02 00:46:53;;;;;;;1999.90;999.90;;;7.90;99.90;;;;;;5074295;28;20059;-76
2023/05/02 00:49:19;;;;;;;1999.90;999.90;;;7.90;99.90;;;;;;5072710;28;20066;-75
2023/05/02 00:51:44;;;;;;;1999.90;999.90;;;7.90;99.90;;;;;;5074542;28;20486;-76
2023/05/02 00:54:14;;;;;;;1999.90;999.90;;;7.90;99.90;;;;;;5074094;28;20082;-76
2023/05/02 00:56:39;;;;;;;1999.90;999.90;;;7.80;99.90;;;;;;5073916;28;20040;-75
2023/05/02 00:59:07;;;;;;;1999.90;999.90;;;7.80;99.90;;;;;;5074332;28;20112;-76
2023/05/02 01:02:00;;;;;;;1999.90;999.90;;;7.80;99.90;;;;;;5074160;28;20098;-76
2023/05/02 01:04:31;;;;;;;1999.90;999.90;;;7.80;99.90;;;;;;5076383;28;20473;-76
2023/05/02 01:07:21;;;;;;;1999.90;999.90;;;7.80;99.90;;;;;;5075819;28;20041;-76
2023/05/02 01:09:50;;;;;;;1999.90;999.90;;;7.80;99.90;;;;;;5077325;28;20117;-76
2023/05/02 01:12:29;;;;;;;1999.90;999.90;;;7.80;99.90;;;;;;5077417;28;20079;-76
2023/05/02 01:14:57;;;;;;;1999.90;999.90;;;7.80;99.90;;;;;;5081213;28;20528;-76
2023/05/02 01:17:26;;;;;;;1999.90;999.90;;;7.80;99.90;;;;;;5076012;28;20044;-75
2023/05/02 01:19:57;;;;;;;1999.90;999.90;;;7.80;99.90;;;;;;5077453;28;20037;-76
2023/05/02 01:22:25;;;;;;;1999.90;999.90;;;7.90;99.90;;;;;;5076402;28;20052;-76
2023/05/02 01:25:08;;;;;;;1999.90;999.90;;;7.90;99.90;;;;;;5076144;28;20040;-76
2023/05/02 01:27:52;;;;;;;1999.90;999.90;;;8.00;99.90;;;;;;5075963;28;20112;-76
2023/05/02 01:30:20;;;;;;;1999.90;999.90;;;8.00;99.90;;;;;;5077488;28;20557;-76
2023/05/02 01:32:47;;;;;;;1999.90;999.90;;;8.10;99.90;;;;;;5077665;28;20112;-76
2023/05/02 01:35:17;;;;;;;1999.90;999.90;;;8.10;99.90;;;;;;5076896;28;20044;-75
2023/05/02 01:37:45;;;;;;;1999.90;999.90;;;8.10;99.90;;;;;;5075377;28;20529;-75
2023/05/02 01:40:16;;;;;;;1999.90;999.90;;;8.10;99.90;;;;;;5077234;28;20563;-76
2023/05/02 01:42:43;;;;;;;1999.90;999.90;;;8.20;99.90;;;;;;5075721;28;20044;-75
2023/05/02 01:45:11;;;;;;;1999.90;999.90;;;8.20;99.90;;;;;;5076057;28;20083;-75
2023/05/02 01:47:38;;;;;;;1999.90;999.90;;;8.20;99.90;;;;;;5076465;28;20029;-76
2023/05/02 01:50:08;;;;;;;1999.90;999.90;;;8.30;99.90;;;;;;5075475;28;20037;-76
2023/05/02 01:52:36;;;;;;;1999.90;999.90;;;8.30;99.90;;;;;;5075415;28;20091;-76
2023/05/02 01:55:03;;;;;;;1999.90;999.90;;;8.30;99.90;;;;;;5076687;28;20711;-76
2023/05/02 01:57:30;;;;;;;1999.90;999.90;;;8.30;99.90;;;;;;5076608;28;20037;-76
2023/05/02 01:59:56;;;;;;;1999.90;999.90;;;8.40;99.90;;;;;;5076833;28;20121;-76
2023/05/02 02:02:26;;;;;;;1999.90;999.90;;;8.40;99.90;;;;;;5076687;28;20112;-75
2023/05/02 02:04:56;;;;;;;1999.90;999.90;;;8.30;99.90;;;;;;5074724;28;20033;-76
2023/05/02 02:07:22;;;;;;;1999.90;999.90;;;8.20;99.90;;;;;;5075204;28;20029;-76
2023/05/02 02:09:48;;;;;;;1999.90;999.90;;;8.20;99.90;;;;;;5075123;28;20037;-76
2023/05/02 02:12:29;;;;;;;1999.90;999.90;;;8.20;99.90;;;;;;5074997;28;20040;-76
2023/05/02 02:14:59;;;;;;;1999.90;999.90;;;8.10;99.90;;;;;;5074899;28;20036;-76
2023/05/02 02:17:35;;;;;;;1999.90;999.90;;;8.10;99.90;;;;;;5074768;28;20085;-75
2023/05/02 02:20:04;;;;;;;1999.90;999.90;;;8.10;99.90;;;;;;5076727;28;20029;-76
2023/05/02 02:22:35;;;;;;;1999.90;999.90;;;8.10;99.90;;;;;;5076316;28;20103;-75
2023/05/02 02:25:02;;;;;;;1999.90;999.90;;;8.00;99.90;;;;;;5076431;28;20258;-76
2023/05/02 02:27:28;;;;;;;1999.90;999.90;;;8.00;99.90;;;;;;5076095;28;20569;-75
2023/05/02 02:29:54;;;;;;;1999.90;999.90;;;7.90;99.90;;;;;;5074895;28;20214;-76
2023/05/02 02:32:19;;;;;;;1999.90;999.90;;;7.80;99.90;;;;;;5074863;28;20380;-76
2023/05/02 02:34:45;;;;;;;1999.90;999.90;;;7.80;99.90;;;;;;5074337;28;20044;-75
2023/05/02 02:37:18;;;;;;;1999.90;999.90;;;7.80;99.90;;;;;;5075504;28;20041;-76
2023/05/02 02:40:14;;;;;;;1999.90;999.90;;;7.70;99.90;;;;;;5076815;28;20028;-76
2023/05/02 02:42:48;;;;;;;1999.90;999.90;;;7.70;99.90;;;;;;5075004;28;20088;-75
2023/05/02 02:45:34;;;;;;;1999.90;999.90;;;7.70;99.90;;;;;;5074428;28;20103;-76
2023/05/02 02:48:18;;;;;;;1999.90;999.90;;;7.60;99.90;;;;;;5076057;28;20049;-76
2023/05/02 02:51:21;;;;;;;1999.90;999.90;;;7.60;99.90;;;;;;5074758;28;20069;-76
2023/05/02 02:54:08;;;;;;;1999.90;999.90;;;7.60;99.90;;;;;;5075846;28;20036;-76
2023/05/02 02:56:40;;;;;;;1999.90;999.90;;;7.50;99.90;;;;;;5075907;28;20036;-75
2023/05/02 02:59:14;;;;;;;1999.90;999.90;;;7.50;99.90;;;;;;5074557;28;20044;-76
2023/05/02 03:01:45;;;;;;;1999.90;999.90;;;7.60;99.90;;;;;;5074605;28;20036;-76
2023/05/02 03:04:12;;;;;;;1999.90;999.90;;;7.60;99.90;;;;;;5074364;28;20499;-76
2023/05/02 03:06:38;;;;;;;1999.90;999.90;;;7.50;99.90;;;;;;5075747;28;20037;-76
2023/05/02 03:09:03;;;;;;;1999.90;999.90;;;7.50;99.90;;;;;;5075818;28;20160;-76
2023/05/02 03:11:29;;;;;;;1999.90;999.90;;;7.60;99.90;;;;;;5075668;28;20036;-75
2023/05/02 03:13:54;;;;;;;1999.90;999.90;;;7.60;99.90;;;;;;5074256;28;20098;-75
2023/05/02 03:16:40;;;;;;;1999.90;999.90;;;7.60;99.90;;;;;;5074235;28;20087;-75
2023/05/02 03:19:06;;;;;;;1999.90;999.90;;;7.70;99.90;;;;;;5075835;28;20541;-75
2023/05/02 03:21:32;;;;;;;1999.90;999.90;;;7.70;99.90;;;;;;5075682;28;20036;-75
2023/05/02 03:24:02;;;;;;;1999.90;999.90;;;7.70;99.90;;;;;;5075462;28;20033;-75
2023/05/02 03:26:28;;;;;;;1999.90;999.90;;;7.80;99.90;;;;;;5075074;28;20098;-75
2023/05/02 03:28:55;;;;;;;1999.90;999.90;;;7.80;99.90;;;;;;5075314;28;20503;-75
2023/05/02 03:31:20;;;;;;;1999.90;999.90;;;7.80;99.90;;;;;;5074206;28;20045;-76
2023/05/02 03:33:47;;;;;;;1999.90;999.90;;;7.90;99.90;;;;;;5073909;28;20041;-74
2023/05/02 03:36:13;;;;;;;1999.90;999.90;;;8.00;99.90;;;;;;5073848;28;20029;-76
2023/05/02 03:38:38;;;;;;;1999.90;999.90;;;8.10;99.90;;;;;;5073224;28;20045;-76
2023/05/02 03:41:04;;;;;;;1999.90;999.90;;;8.30;99.90;;;;;;5075352;28;20025;-76
2023/05/02 03:43:30;;;;;;;1999.90;999.90;;;8.40;99.90;;;;;;5073813;28;20124;-75
2023/05/02 03:45:56;;;;;;;1999.90;999.90;;;8.60;99.90;;;;;;5074884;28;20029;-76
2023/05/02 03:48:22;;;;;;;1999.90;999.90;;;8.70;99.90;;;;;;5073590;28;20041;-76
2023/05/02 03:50:48;;;;;;;1999.90;999.90;;;8.80;99.90;;;;;;5075534;28;20033;-76
2023/05/02 03:53:15;;;;;;;1999.90;999.90;;;8.80;99.90;;;;;;5073679;28;20524;-76
2023/05/02 03:55:41;;;;;;;1999.90;999.90;;;8.90;99.90;;;;;;5073514;28;20513;-76
2023/05/02 03:58:07;;;;;;;1999.90;999.90;;;8.90;99.90;;;;;;5073566;28;20494;-76
2023/05/02 04:00:33;;;;;;;1999.90;999.90;;;8.90;99.90;;;;;;5073496;28;20079;-76
2023/05/02 04:03:02;;;;;;;1999.90;999.90;;;8.90;99.90;;;;;;5074931;28;20429;-75
2023/05/02 04:05:28;;;;;;;1999.90;999.90;;;9.00;99.90;;;;;;5074611;28;20035;-76
2023/05/02 04:07:57;;;;;;;1999.90;999.90;;;9.00;99.90;;;;;;5073250;28;20434;-76
2023/05/02 04:10:22;;;;;;;1999.90;999.90;;;9.10;99.90;;;;;;5074912;28;20037;-76
2023/05/02 04:12:48;;;;;;;1999.90;999.90;;;9.20;99.90;;;;;;5075156;28;20033;-76
2023/05/02 04:15:14;;;;;;;1999.90;999.90;;;9.30;99.90;;;;;;5073137;28;20033;-75
2023/05/02 04:17:39;;;;;;;1999.90;999.90;;;9.40;99.90;;;;;;5073611;28;20033;-76
2023/05/02 04:20:05;;;;;;;1999.90;999.90;;;9.50;99.90;;;;;;5073856;28;20144;-76
2023/05/02 04:22:32;;;;;;;1999.90;999.90;;;9.60;99.90;;;;;;5074997;28;20059;-76
2023/05/02 04:24:57;;;;;;;1999.90;999.90;;;9.70;99.90;;;;;;5074720;28;20495;-75
2023/05/02 04:27:23;;;;;;;1999.90;999.90;;;9.60;99.90;;;;;;5073284;28;20037;-76
2023/05/02 04:29:49;;;;;;;1999.90;999.90;;;9.60;99.90;;;;;;5073068;28;20111;-75
2023/05/02 04:32:15;;;;;;;1999.90;999.90;;;9.70;99.90;;;;;;5073139;28;20037;-76
2023/05/02 04:34:40;;;;;;;1999.90;999.90;;;9.60;99.90;;;;;;5074421;28;20045;-75
2023/05/02 04:39:38;;;;;;;1999.90;999.90;;;9.60;99.90;;;;;;5076292;28;20473;-75
2023/05/02 04:42:04;;;;;;;1999.90;999.90;;;9.50;99.90;;;;;;5079501;28;20045;-75
2023/05/02 04:44:30;;;;;;;1999.90;999.90;;;9.50;99.90;;;;;;5077689;28;20021;-75
2023/05/02 04:46:55;;;;;;;1999.90;999.90;;;9.60;99.90;;;;;;5079369;28;20056;-76
2023/05/02 04:49:21;;;;;;;1999.90;999.90;;;9.60;99.90;;;;;;5078110;28;20045;-75
2023/05/02 04:51:46;;;;;;;1999.90;999.90;;;9.70;99.90;;;;;;5078868;28;20037;-76
2023/05/02 04:54:12;;;;;;;1999.90;999.90;;;9.80;99.90;;;;;;5060345;28;20033;-74
2023/05/02 04:56:38;;;;;;;1999.90;999.90;;;9.90;99.90;;;;;;5060161;28;20032;-74
2023/05/02 04:59:03;;;;;;;1999.90;999.90;;;10.10;99.90;;;;;;5078354;28;20040;-74
2023/05/02 05:01:29;;;;;;;1999.90;999.90;;;10.20;99.90;;;;;;5060083;28;20406;-74
2023/05/02 05:03:55;;;;;;;1999.90;999.90;;;10.30;99.90;;;;;;5079048;28;20057;-74
2023/05/02 05:06:21;;;;;;;1999.90;999.90;;;10.30;99.90;;;;;;5079514;28;20046;-74
2023/05/02 05:08:47;;;;;;;1999.90;999.90;;;10.40;99.90;;;;;;5060305;28;20767;-74
2023/05/02 05:11:14;;;;;;;1999.90;999.90;;;10.50;99.90;;;;;;5079043;28;20033;-74
2023/05/02 05:13:40;;;;;;;1999.90;999.90;;;10.50;99.90;;;;;;5078522;28;20029;-76
2023/05/02 05:16:06;;;;;;;1999.90;999.90;;;10.50;99.90;;;;;;5078440;28;20072;-75
2023/05/02 05:18:39;;;;;;;1999.90;999.90;;;10.60;99.90;;;;;;5078589;28;20053;-74
2023/05/02 05:21:08;;;;;;;1999.90;999.90;;;10.70;99.90;;;;;;5077883;28;20033;-75
2023/05/02 05:23:35;;;;;;;1999.90;999.90;;;10.80;99.90;;;;;;5077590;28;20040;-76
2023/05/02 05:26:14;;;;;;;1999.90;999.90;;;10.80;99.90;;;;;;5078399;28;20029;-75
2023/05/02 05:28:40;;;;;;;1999.90;999.90;;;10.80;99.90;;;;;;5078901;28;20414;-75
2023/05/02 05:31:07;;;;;;;1999.90;999.90;;;10.90;99.90;;;;;;5078065;28;20045;-75
2023/05/02 05:33:33;;;;;;;1999.90;999.90;;;11.00;99.90;;;;;;5064069;28;20034;-75
2023/05/02 05:36:10;;;;;;;1999.90;999.90;;;11.00;99.90;;;;;;5059182;28;20033;-75
2023/05/02 05:38:36;;;;;;;1999.90;999.90;;;11.10;99.90;;;;;;5039353;28;20037;-76
2023/05/02 05:42:03;;;;;;;1999.90;999.90;;;11.20;99.90;;;;;;5040292;28;20042;-75
2023/05/02 05:44:28;;;;;;;1999.90;999.90;;;11.20;99.90;;;;;;5002105;28;20045;-75
2023/05/02 05:46:54;;;;;;;1999.90;999.90;;;11.30;99.90;;;;;;5057612;28;20029;-76
2023/05/02 05:49:20;;;;;;;1999.90;999.90;;;11.40;99.90;;;;;;5057441;28;20488;-75
2023/05/02 05:51:46;;;;;;;1999.90;999.90;;;11.40;99.90;;;;;;5057004;28;20029;-79
2023/05/02 05:54:12;;;;;;;1999.90;999.90;;;11.40;99.90;;;;;;5056694;28;20029;-74
2023/05/02 05:56:37;;;;;;;1999.90;999.90;;;11.50;99.90;;;;;;5056372;28;20040;-74
2023/05/02 05:59:03;;;;;;;1999.90;999.90;;;11.60;99.90;;;;;;5056531;28;20046;-75
2023/05/02 06:01:28;;;;;;;1999.90;999.90;;;11.70;99.90;;;;;;5056718;28;20100;-75
2023/05/02 06:03:54;;;;;;;1999.90;999.90;;;12.00;99.90;;;;;;5056078;28;20061;-75
2023/05/02 06:06:19;;;;;;;1999.90;999.90;;;11.90;99.90;;;;;;5038133;28;20032;-75
2023/05/02 06:08:45;;;;;;;1999.90;999.90;;;12.00;99.90;;;;;;5056017;28;20037;-75
2023/05/02 06:11:11;;;;;;;1999.90;999.90;;;12.10;99.90;;;;;;5056208;28;20160;-75
2023/05/02 06:13:37;;;;;;;1999.90;999.90;;;12.20;99.90;;;;;;5056030;28;20494;-75
2023/05/02 06:16:02;;;;;;;1999.90;999.90;;;12.30;99.90;;;;;;5055842;28;20519;-75
2023/05/02 06:18:28;;;;;;;1999.90;999.90;;;12.30;99.90;;;;;;5055913;28;20144;-75
2023/05/02 06:20:54;;;;;;;1999.90;999.90;;;12.40;99.90;;;;;;5056540;28;20041;-77
2023/05/02 06:23:20;;;;;;;1999.90;999.90;;;12.50;99.90;;;;;;5056403;28;20040;-76
2023/05/02 06:25:45;;;;;;;1999.90;999.90;;;12.60;99.90;;;;;;5040008;28;20052;-75
2023/05/02 06:28:10;;;;;;;1999.90;999.90;;;12.60;99.90;;;;;;5056517;28;20092;-75
2023/05/02 06:30:36;;;;;;;1999.90;999.90;;;12.10;99.90;;;;;;5038147;28;20038;-78
2023/05/02 06:33:05;;;;;;;1999.90;999.90;;;12.70;99.90;;;;;;5039765;28;20117;-77
2023/05/02 06:35:30;;;;;;;1999.90;999.90;;;12.80;99.90;;;;;;5056216;28;20037;-75
2023/05/02 06:37:56;;;;;;;1999.90;999.90;;;13.00;99.90;;;;;;5055334;28;20498;-75
2023/05/02 06:40:21;;;;;;;1999.90;999.90;;;13.10;99.90;;;;;;5055813;28;20499;-73
2023/05/02 06:42:47;;;;;;;1999.90;999.90;;;13.20;99.90;;;;;;5055693;28;20038;-73
2023/05/02 06:45:13;;;;;;;1999.90;999.90;;;13.30;99.90;;;;;;5055666;28;20044;-73
2023/05/02 06:47:38;;;;;;;1999.90;999.90;;;13.40;99.90;;;;;;5055659;28;20037;-73
2023/05/02 06:50:04;;;;;;;1999.90;999.90;;;13.40;99.90;;;;;;5055434;28;20410;-73
2023/05/02 06:52:30;;;;;;;1999.90;999.90;;;13.50;99.90;;;;;;5055702;28;20044;-73
2023/05/02 06:54:55;;;;;;;1999.90;999.90;;;13.30;99.90;;;;;;5055062;28;20033;-73
2023/05/02 06:57:21;;;;;;;1999.90;999.90;;;13.30;99.90;;;;;;5055162;28;20037;-73
2023/05/02 06:59:47;;;;;;;1999.90;999.90;;;13.40;99.90;;;;;;5037663;28;20046;-73
2023/05/02 07:02:13;;;;;;;1999.90;999.90;;;13.50;99.90;;;;;;5068269;28;20033;-73
2023/05/02 07:04:38;;;;;;;1999.90;999.90;;;13.70;99.90;;;;;;5070040;28;20487;-73
2023/05/02 07:07:04;;;;;;;1999.90;999.90;;;13.90;99.90;;;;;;5074993;28;20040;-73
2023/05/02 07:09:30;;;;;;;1999.90;999.90;;;13.90;99.90;;;;;;5075027;28;20523;-75
2023/05/02 07:11:55;;;;;;;1999.90;999.90;;;13.90;99.90;;;;;;5075914;28;20025;-76
2023/05/02 07:14:21;;;;;;;1999.90;999.90;;;14.10;99.90;;;;;;5075397;28;20032;-75
2023/05/02 07:16:47;;;;;;;1999.90;999.90;;;14.10;99.90;;;;;;5074185;28;20025;-74
2023/05/02 07:19:12;;;;;;;1999.90;999.90;;;14.10;99.90;;;;;;5075154;28;20155;-73
2023/05/02 07:21:38;;;;;;;1999.90;999.90;;;14.20;99.90;;;;;;5075929;28;20029;-74
2023/05/02 07:24:04;;;;;;;1999.90;999.90;;;14.20;99.90;;;;;;5072226;28;20048;-73
2023/05/02 07:26:29;;;;;;;1999.90;999.90;;;14.20;99.90;;;;;;5055425;28;20129;-73
2023/05/02 07:28:55;;;;;;;1999.90;999.90;;;14.10;99.90;;;;;;5063666;28;20040;-73
2023/05/02 07:31:20;;;;;;;1999.90;999.90;;;14.20;99.90;;;;;;5074977;28;20025;-73
2023/05/02 07:33:46;;;;;;;1999.90;999.90;;;14.20;99.90;;;;;;5074287;28;20789;-73
2023/05/02 07:36:11;;;;;;;1999.90;999.90;;;14.30;99.90;;;;;;5074982;28;20052;-73
2023/05/02 07:38:37;;;;;;;1999.90;999.90;;;14.50;99.90;;;;;;5074086;28;20045;-73
2023/05/02 07:41:02;;;;;;;1999.90;999.90;;;14.90;99.90;;;;;;5066336;28;20096;-73
2023/05/02 07:43:28;;;;;;;1999.90;999.90;;;15.20;99.90;;;;;;5054453;28;20029;-74
2023/05/02 07:45:54;;;;;;;1999.90;999.90;;;15.60;99.90;;;;;;5054929;28;20076;-73
2023/05/02 07:48:20;;;;;;;1999.90;999.90;;;15.90;99.90;;;;;;5036344;28;20511;-73
2023/05/02 07:50:45;;;;;;;1999.90;999.90;;;15.90;99.90;;;;;;5054594;28;20057;-73
2023/05/02 07:53:11;;;;;;;1999.90;999.90;;;16.10;99.90;;;;;;5037075;28;20061;-74
2023/05/02 07:55:37;;;;;;;1999.90;999.90;;;16.20;99.90;;;;;;5054667;28;20080;-75
2023/05/02 07:58:02;;;;;;;1999.90;999.90;;;15.90;99.90;;;;;;5054540;28;20379;-75
2023/05/02 08:00:29;;;;;;;1999.90;999.90;;;15.70;99.90;;;;;;5036556;28;20037;-74
2023/05/02 08:02:54;;;;;;;1999.90;999.90;;;15.60;99.90;;;;;;5054639;28;20030;-76
2023/05/02 08:05:20;;;;;;;1999.90;999.90;;;15.60;99.90;;;;;;5056716;28;20511;-75
2023/05/02 08:07:46;;;;;;;1999.90;999.90;;;15.90;99.90;;;;;;5065438;28;20060;-75
2023/05/02 08:10:11;;;;;;;1999.90;999.90;;;15.80;99.90;;;;;;5074125;28;20434;-75
2023/05/02 08:12:41;;;;;;;1999.90;999.90;;;15.80;99.90;;;;;;5056146;28;20033;-75
2023/05/02 08:15:08;;;;;;;1999.90;999.90;;;15.80;99.90;;;;;;5057541;28;20040;-74
2023/05/02 08:17:33;;;;;;;1999.90;999.90;;;16.10;99.90;;;;;;5054160;28;20041;-74
2023/05/02 08:19:59;;;;;;;1999.90;999.90;;;16.50;99.90;;;;;;5054495;28;20491;-76
2023/05/02 08:22:25;;;;;;;1999.90;999.90;;;16.20;99.90;;;;;;5053997;28;20021;-75
2023/05/02 08:24:50;;;;;;;1999.90;999.90;;;16.00;99.90;;;;;;5066351;28;20048;-74
2023/05/02 08:27:16;;;;;;;1999.90;999.90;;;16.20;99.90;;;;;;5062090;28;20037;-74
2023/05/02 08:29:41;;;;;;;1999.90;999.90;;;16.30;99.90;;;;;;5061463;28;20426;-74
2023/05/02 08:32:07;;;;;;;1999.90;999.90;;;16.40;99.90;;;;;;5035521;28;20033;-74
2023/05/02 08:34:32;;;;;;;1999.90;999.90;;;16.20;99.90;;;;;;5072618;28;20025;-74
2023/05/02 08:36:58;;;;;;;1999.90;999.90;;;16.50;99.90;;;;;;5073582;28;20385;-73
2023/05/02 08:39:24;;;;;;;1999.90;999.90;;;16.60;99.90;;;;;;5073343;28;20610;-75
2023/05/02 08:41:49;;;;;;;1999.90;999.90;;;16.80;99.90;;;;;;5073368;28;20033;-74
2023/05/02 08:44:16;;;;;;;1999.90;999.90;;;17.20;99.90;;;;;;5069719;28;20040;-74
2023/05/02 08:46:42;;;;;;;1999.90;999.90;;;17.40;99.90;;;;;;5057067;28;20034;-73
2023/05/02 08:49:10;;;;;;;1999.90;999.90;;;17.20;99.90;;;;;;5053817;28;20132;-74
2023/05/02 08:51:36;;;;;;;1999.90;999.90;;;17.60;99.90;;;;;;5053103;28;20144;-74
2023/05/02 08:54:02;;;;;;;1999.90;999.90;;;18.00;99.90;;;;;;5053074;28;20069;-74
2023/05/02 08:56:28;;;;;;;1999.90;999.90;;;18.30;99.90;;;;;;5066722;28;20044;-74
2023/05/02 08:58:54;;;;;;;1999.90;999.90;;;18.50;99.90;;;;;;5072349;28;20047;-74
2023/05/02 09:01:23;;;;;;;1999.90;999.90;;;18.80;99.90;;;;;;5070897;28;20032;-74
2023/05/02 09:03:49;;;;;;;1999.90;999.90;;;18.50;99.90;;;;;;5073348;28;20041;-74
2023/05/02 09:06:16;;;;;;;1999.90;999.90;;;18.20;99.90;;;;;;5062079;28;20091;-74
2023/05/02 09:08:43;;;;;;;1999.90;999.90;;;18.10;99.90;;;;;;5053071;28;20068;-74
2023/05/02 09:11:10;;;;;;;1999.90;999.90;;;18.10;99.90;;;;;;5072086;28;20029;-74
2023/05/02 09:13:41;;;;;;;1999.90;999.90;;;17.70;99.90;;;;;;5073511;28;20049;-74
2023/05/02 09:16:11;;;;;;;1999.90;999.90;;;17.20;99.90;;;;;;5072501;28;20441;-75
2023/05/02 09:18:46;;;;;;;1999.90;999.90;;;17.00;99.90;;;;;;5073215;28;20132;-75
2023/05/02 09:21:14;;;;;;;1999.90;999.90;;;17.10;99.90;;;;;;5074308;28;20064;-77
2023/05/02 09:23:44;;;;;;;1999.90;999.90;;;16.90;99.90;;;;;;5073241;28;20037;-74
2023/05/02 09:26:10;;;;;;;1999.90;999.90;;;17.00;99.90;;;;;;5049881;28;20499;-74
2023/05/02 09:28:42;;;;;;;1999.90;999.90;;;17.40;99.90;;;;;;5056798;28;20038;-74
2023/05/02 09:31:10;;;;;;;1999.90;999.90;;;17.40;99.90;;;;;;5056573;28;20037;-74
2023/05/02 09:33:37;;;;;;;1999.90;999.90;;;17.70;99.90;;;;;;5056423;28;20033;-73
2023/05/02 09:36:06;;;;;;;1999.90;999.90;;;17.70;99.90;;;;;;5068359;28;20564;-73
2023/05/02 09:38:32;;;;;;;1999.90;999.90;;;17.90;99.90;;;;;;5055514;28;20037;-73
2023/05/02 09:40:58;;;;;;;1999.90;999.90;;;17.90;99.90;;;;;;5038096;28;20037;-73
2023/05/02 09:43:25;;;;;;;1999.90;999.90;;;18.20;99.90;;;;;;5037974;28;20044;-74
2023/05/02 09:46:05;;;;;;;1999.90;999.90;;;18.80;99.50;;;;;;5055665;28;20038;-73
2023/05/02 09:48:32;;;;;;;1999.90;999.90;;;19.40;99.60;;;;;;5053549;28;20041;-73
2023/05/02 09:50:58;;;;;;;1999.90;999.90;;;20.20;97.20;;;;;;5057604;28;20432;-73
2023/05/02 09:53:25;;;;;;;1999.90;999.90;;;19.70;96.30;;;;;;5076022;28;20131;-73
2023/05/02 09:56:02;;;;;;;1999.90;999.90;;;19.40;97.10;;;;;;5076064;28;20036;-73
2023/05/02 09:58:29;;;;;;;1999.90;999.90;;;19.20;98.60;;;;;;5075971;28;20039;-73
2023/05/02 10:00:56;;;;;;;1999.90;999.90;;;19.10;96.90;;;;;;5060469;28;20034;-74
2023/05/02 10:03:25;;;;;;;1999.90;999.90;;;19.80;95.80;;;;;;5055906;28;20137;-74
2023/05/02 10:05:53;;;;;;;1999.90;999.90;;;19.80;95.70;;;;;;5069825;28;20037;-74
2023/05/02 10:08:19;;;;;;;1999.90;999.90;;;19.90;95.00;;;;;;5075763;28;20391;-74
2023/05/02 10:10:50;;;;;;;1999.90;999.90;;;20.60;95.40;;;;;;5075885;28;20025;-74
2023/05/02 10:13:18;;;;;;;1999.90;999.90;;;20.70;92.90;;;;;;5057676;28;20040;-74
2023/05/02 10:15:44;;;;;;;1999.90;999.90;;;20.20;93.40;;;;;;5075556;28;20548;-74
2023/05/02 10:18:20;;;;;;;1999.90;999.90;;;19.20;93.80;;;;;;5038922;28;20041;-74
2023/05/02 10:20:56;;;;;;;1999.90;999.90;;;18.80;95.20;;;;;;5076338;28;20032;-77
2023/05/02 10:23:26;;;;;;;1999.90;999.90;;;18.40;96.70;;;;;;5076094;28;20028;-76
2023/05/02 10:25:52;;;;;;;1999.90;999.90;;;18.60;96.80;;;;;;5057177;28;20036;-75
2023/05/02 10:28:19;;;;;;;1999.90;999.90;;;18.60;97.80;;;;;;5075225;28;20510;-76
2023/05/02 10:30:49;;;;;;;1999.90;999.90;;;18.70;98.20;;;;;;5075814;28;20074;-75
2023/05/02 10:33:16;;;;;;;1999.90;999.90;;;18.50;97.10;;;;;;5057567;28;20040;-76
2023/05/02 10:35:45;;;;;;;1999.90;999.90;;;18.40;98.10;;;;;;5044577;28;20033;-76
2023/05/02 10:38:13;;;;;;;1999.90;999.90;;;18.30;99.90;;;;;;5048873;28;20044;-76
2023/05/02 10:40:40;;;;;;;1999.90;999.90;;;17.90;99.90;;;;;;5068310;28;20030;-77
2023/05/02 10:43:07;;;;;;;1999.90;999.90;;;17.60;99.90;;;;;;5056018;28;20065;-76
2023/05/02 10:45:34;;;;;;;1999.90;999.90;;;17.70;99.90;;;;;;5066553;28;20033;-75
2023/05/02 10:48:18;;;;;;;1999.90;999.90;;;18.20;99.60;;;;;;5067317;28;20506;-75
2023/05/02 10:50:50;;;;;;;1999.90;999.90;;;18.80;98.80;;;;;;5075546;28;20033;-74
2023/05/02 10:53:25;;;;;;;1999.90;999.90;;;19.00;97.20;;;;;;5075803;28;20099;-75
2023/05/02 10:56:14;;;;;;;1999.90;999.90;;;18.90;94.30;;;;;;5044096;28;20384;-75
2023/05/02 10:58:41;;;;;;;1999.90;999.90;;;18.60;95.20;;;;;;5037315;28;20797;-75
2023/05/02 11:01:35;;;;;;;1999.90;999.90;;;18.60;96.50;;;;;;5070321;28;20036;-79
2023/05/02 11:04:05;;;;;;;1999.90;999.90;;;18.20;97.20;;;;;;5072367;28;20090;-75
2023/05/02 11:06:55;;;;;;;1999.90;999.90;;;17.90;97.00;;;;;;5055315;28;20569;-74
2023/05/02 11:09:21;;;;;;;1999.90;999.90;;;17.90;96.70;;;;;;5065600;28;20094;-78
2023/05/02 11:11:55;;;;;;;1999.90;999.90;;;18.40;97.00;;;;;;5073759;28;20033;-75
2023/05/02 11:14:29;;;;;;;1999.90;999.90;;;19.10;97.00;;;;;;5043178;28;20124;-81
2023/05/02 11:17:03;;;;;;;1999.90;999.90;;;19.50;95.00;;;;;;5056499;28;20034;-76
2023/05/02 11:19:50;;;;;;;1999.90;999.90;;;20.30;93.70;;;;;;5053979;28;20120;-78
2023/05/02 11:22:23;;;;;;;1999.90;999.90;;;20.60;91.90;;;;;;5014241;28;20048;-74
2023/05/02 11:24:50;;;;;;;1999.90;999.90;;;20.50;93.50;;;;;;5058293;28;20485;-74
2023/05/02 11:27:32;;;;;;;1999.90;999.90;;;20.80;91.80;;;;;;5090551;22;20028;-76
2023/05/02 11:30:01;;;;;;;1999.90;999.90;;;20.80;92.00;;;;;;5077246;28;20456;-77
2023/05/02 11:32:45;;;;;;;1999.90;999.90;;;21.00;90.70;;;;;;5098066;28;20047;-78
2023/05/02 11:35:20;;;;;;;1999.90;999.90;;;20.40;91.40;;;;;;5095984;28;20059;-77
2023/05/02 11:38:14;;;;;;;1999.90;999.90;;;19.70;92.00;;;;;;5078054;28;20037;-77
2023/05/02 11:40:40;;;;;;;1999.90;999.90;;;18.50;94.30;;;;;;5074433;28;20122;-77
2023/05/02 11:43:20;;;;;;;1999.90;999.90;;;17.90;94.10;;;;;;5078184;28;20059;-78
2023/05/02 11:45:46;;;;;;;1999.90;999.90;;;17.50;95.60;;;;;;5095743;28;20029;-78
2023/05/02 11:48:14;;;;;;;1999.90;999.90;;;17.40;96.30;;;;;;5076058;28;20119;-78
2023/05/02 11:50:51;;;;;;;1999.90;999.90;;;17.50;96.40;;;;;;5076715;28;20063;-77
2023/05/02 11:53:22;;;;;;;1999.90;999.90;;;18.10;96.90;;;;;;5096876;28;20076;-77
2023/05/02 11:55:56;;;;;;;1999.90;999.90;;;18.60;95.30;;;;;;5094845;28;20044;-77
2023/05/02 11:58:24;;;;;;;1999.90;999.90;;;18.40;94.70;;;;;;5094731;28;20039;-77
2023/05/02 12:00:51;;;;;;;1999.90;999.90;;;18.50;95.00;;;;;;5076631;28;20036;-78
2023/05/02 12:03:31;;;;;;;1999.90;999.90;;;18.40;94.00;;;;;;5095436;28;20029;-79
2023/05/02 12:06:08;;;;;;;1999.90;999.90;;;18.60;94.50;;;;;;5095634;28;20024;-79
2023/05/02 12:08:34;;;;;;;1999.90;999.90;;;19.60;94.60;;;;;;5076485;28;20044;-79
2023/05/02 12:10:59;;;;;;;1999.90;999.90;;;19.60;94.00;;;;;;5077403;28;20039;-79
2023/05/02 12:13:25;;;;;;;1999.90;999.90;;;19.50;93.00;;;;;;5077469;28;20033;-79